sensor_id;sensor_type;location;lat;lon;timestamp;P1;durP1;ratioP1;P2;durP2;ratioP2
13689;SDS011;6917;52.194;9.894;2023-07-31T00:02:22;0.00;;;0.00;;
13689;SDS011;6917;52.194;9.894;2023-07-31T00:04:47;0.00;;;0.00;;
13689;SDS011;6917;52.194;9.894;2023-07-31T00:07:14;0.13;;;0.13;;
13689;SDS011;6917;52.194;9.894;2023-07-31T00:09:39;0.00;;;0.00;;
13689;SDS011;6917;52.194;9.894;2023-07-31T00:12:05;0.00;;;0.00;;
13689;SDS011;6917;52.194;9.894;2023-07-31T00:14:30;0.00;;;0.00;;
13689;SDS011;6917;52.194;9.894;2023-07-31T00:16:55;0.00;;;0.00;;
13689;SDS011;6917;52.194;9.894;2023-07-31T00:19:21;0.60;;;0.60;;
13689;SDS011;6917;52.194;9.894;2023-07-31T00:21:46;0.00;;;0.00;;
13689;SDS011;6917;52.194;9.894;2023-07-31T00:24:11;0.00;;;0.00;;
13689;SDS011;6917;52.194;9.894;2023-07-31T00:26:37;0.00;;;0.00;;
13689;SDS011;6917;52.194;9.894;2023-07-31T00:29:05;0.03;;;0.03;;
13689;SDS011;6917;52.194;9.894;2023-07-31T00:31:30;0.00;;;0.00;;
13689;SDS011;6917;52.194;9.894;2023-07-31T00:33:56;0.00;;;0.00;;
13689;SDS011;6917;52.194;9.894;2023-07-31T00:36:21;0.00;;;0.00;;
13689;SDS011;6917;52.194;9.894;2023-07-31T00:38:46;0.00;;;0.00;;
13689;SDS011;6917;52.194;9.894;2023-07-31T00:41:12;0.00;;;0.00;;
13689;SDS011;6917;52.194;9.894;2023-07-31T00:43:37;0.00;;;0.00;;
13689;SDS011;6917;52.194;9.894;2023-07-31T00:46:02;0.00;;;0.00;;
13689;SDS011;6917;52.194;9.894;2023-07-31T00:48:28;0.00;;;0.00;;
13689;SDS011;6917;52.194;9.894;2023-07-31T00:50:53;0.00;;;0.00;;
13689;SDS011;6917;52.194;9.894;2023-07-31T00:53:19;0.00;;;0.00;;
13689;SDS011;6917;52.194;9.894;2023-07-31T00:55:44;0.00;;;0.00;;
13689;SDS011;6917;52.194;9.894;2023-07-31T00:58:09;0.00;;;0.00;;
13689;SDS011;6917;52.194;9.894;2023-07-31T01:00:35;0.00;;;0.00;;
13689;SDS011;6917;52.194;9.894;2023-07-31T01:03:00;0.00;;;0.00;;
13689;SDS011;6917;52.194;9.894;2023-07-31T01:05:33;0.00;;;0.00;;
13689;SDS011;6917;52.194;9.894;2023-07-31T01:11:07;0.00;;;0.00;;
13689;SDS011;6917;52.194;9.894;2023-07-31T01:13:39;0.00;;;0.00;;
13689;SDS011;6917;52.194;9.894;2023-07-31T01:16:05;0.00;;;0.00;;
13689;SDS011;6917;52.194;9.894;2023-07-31T01:18:30;0.00;;;0.00;;
13689;SDS011;6917;52.194;9.894;2023-07-31T01:20:58;0.53;;;0.53;;
13689;SDS011;6917;52.194;9.894;2023-07-31T01:24:16;1.03;;;0.87;;
13689;SDS011;6917;52.194;9.894;2023-07-31T01:26:39;0.00;;;0.00;;
13689;SDS011;6917;52.194;9.894;2023-07-31T01:29:26;0.50;;;0.40;;
13689;SDS011;6917;52.194;9.894;2023-07-31T01:32:01;2.97;;;0.30;;
13689;SDS011;6917;52.194;9.894;2023-07-31T01:34:28;0.53;;;0.20;;
13689;SDS011;6917;52.194;9.894;2023-07-31T01:36:55;0.40;;;0.40;;
13689;SDS011;6917;52.194;9.894;2023-07-31T01:39:21;0.40;;;0.40;;
13689;SDS011;6917;52.194;9.894;2023-07-31T01:41:46;1.23;;;0.30;;
13689;SDS011;6917;52.194;9.894;2023-07-31T01:44:11;0.33;;;0.33;;
13689;SDS011;6917;52.194;9.894;2023-07-31T01:46:37;0.00;;;0.00;;
13689;SDS011;6917;52.194;9.894;2023-07-31T01:49:02;0.40;;;0.40;;
13689;SDS011;6917;52.194;9.894;2023-07-31T01:51:27;0.00;;;0.00;;
13689;SDS011;6917;52.194;9.894;2023-07-31T01:53:53;0.10;;;0.10;;
13689;SDS011;6917;52.194;9.894;2023-07-31T01:56:18;7.53;;;1.17;;
13689;SDS011;6917;52.194;9.894;2023-07-31T01:58:43;0.10;;;0.03;;
13689;SDS011;6917;52.194;9.894;2023-07-31T02:01:09;0.00;;;0.00;;
13689;SDS011;6917;52.194;9.894;2023-07-31T02:03:34;0.00;;;0.00;;
13689;SDS011;6917;52.194;9.894;2023-07-31T02:05:59;0.20;;;0.10;;
13689;SDS011;6917;52.194;9.894;2023-07-31T02:08:24;0.10;;;0.10;;
13689;SDS011;6917;52.194;9.894;2023-07-31T02:10:50;0.20;;;0.20;;
13689;SDS011;6917;52.194;9.894;2023-07-31T02:13:15;0.00;;;0.00;;
13689;SDS011;6917;52.194;9.894;2023-07-31T02:15:40;1.17;;;0.37;;
13689;SDS011;6917;52.194;9.894;2023-07-31T02:18:06;10.27;;;0.33;;
13689;SDS011;6917;52.194;9.894;2023-07-31T02:20:33;10.47;;;1.07;;
13689;SDS011;6917;52.194;9.894;2023-07-31T02:23:00;0.13;;;0.13;;
13689;SDS011;6917;52.194;9.894;2023-07-31T02:25:25;0.10;;;0.07;;
13689;SDS011;6917;52.194;9.894;2023-07-31T02:27:50;0.10;;;0.10;;
13689;SDS011;6917;52.194;9.894;2023-07-31T02:30:16;0.20;;;0.20;;
13689;SDS011;6917;52.194;9.894;2023-07-31T02:32:41;0.00;;;0.00;;
13689;SDS011;6917;52.194;9.894;2023-07-31T02:35:06;0.00;;;0.00;;
13689;SDS011;6917;52.194;9.894;2023-07-31T02:37:33;0.10;;;0.10;;
13689;SDS011;6917;52.194;9.894;2023-07-31T02:39:59;0.57;;;0.37;;
13689;SDS011;6917;52.194;9.894;2023-07-31T02:42:24;0.10;;;0.10;;
13689;SDS011;6917;52.194;9.894;2023-07-31T02:44:49;0.00;;;0.00;;
13689;SDS011;6917;52.194;9.894;2023-07-31T02:47:20;0.00;;;0.00;;
13689;SDS011;6917;52.194;9.894;2023-07-31T02:49:45;0.00;;;0.00;;
13689;SDS011;6917;52.194;9.894;2023-07-31T02:52:11;0.00;;;0.00;;
13689;SDS011;6917;52.194;9.894;2023-07-31T02:54:36;0.50;;;0.37;;
13689;SDS011;6917;52.194;9.894;2023-07-31T02:57:01;0.10;;;0.10;;
13689;SDS011;6917;52.194;9.894;2023-07-31T02:59:27;0.30;;;0.23;;
13689;SDS011;6917;52.194;9.894;2023-07-31T03:01:53;0.20;;;0.20;;
13689;SDS011;6917;52.194;9.894;2023-07-31T03:04:18;0.00;;;0.00;;
13689;SDS011;6917;52.194;9.894;2023-07-31T03:06:43;0.30;;;0.30;;
13689;SDS011;6917;52.194;9.894;2023-07-31T03:09:08;0.00;;;0.00;;
13689;SDS011;6917;52.194;9.894;2023-07-31T03:11:34;0.20;;;0.20;;
13689;SDS011;6917;52.194;9.894;2023-07-31T03:13:59;0.10;;;0.10;;
13689;SDS011;6917;52.194;9.894;2023-07-31T03:16:24;0.13;;;0.13;;
13689;SDS011;6917;52.194;9.894;2023-07-31T03:18:49;0.50;;;0.27;;
13689;SDS011;6917;52.194;9.894;2023-07-31T03:21:15;0.40;;;0.40;;
13689;SDS011;6917;52.194;9.894;2023-07-31T03:23:40;0.20;;;0.20;;
13689;SDS011;6917;52.194;9.894;2023-07-31T03:26:06;0.20;;;0.20;;
13689;SDS011;6917;52.194;9.894;2023-07-31T03:28:33;0.37;;;0.37;;
13689;SDS011;6917;52.194;9.894;2023-07-31T03:30:59;0.00;;;0.00;;
13689;SDS011;6917;52.194;9.894;2023-07-31T03:33:24;0.43;;;0.30;;
13689;SDS011;6917;52.194;9.894;2023-07-31T03:35:50;0.50;;;0.40;;
13689;SDS011;6917;52.194;9.894;2023-07-31T03:38:15;0.43;;;0.30;;
13689;SDS011;6917;52.194;9.894;2023-07-31T03:40:41;0.20;;;0.20;;
13689;SDS011;6917;52.194;9.894;2023-07-31T03:43:06;0.20;;;0.20;;
13689;SDS011;6917;52.194;9.894;2023-07-31T03:45:31;0.33;;;0.33;;
13689;SDS011;6917;52.194;9.894;2023-07-31T03:47:57;1.13;;;0.20;;
13689;SDS011;6917;52.194;9.894;2023-07-31T03:50:22;0.00;;;0.00;;
13689;SDS011;6917;52.194;9.894;2023-07-31T03:52:47;0.03;;;0.03;;
13689;SDS011;6917;52.194;9.894;2023-07-31T03:55:13;0.33;;;0.23;;
13689;SDS011;6917;52.194;9.894;2023-07-31T03:57:38;0.20;;;0.20;;
13689;SDS011;6917;52.194;9.894;2023-07-31T04:00:04;0.00;;;0.00;;
13689;SDS011;6917;52.194;9.894;2023-07-31T04:02:29;0.00;;;0.00;;
13689;SDS011;6917;52.194;9.894;2023-07-31T04:04:55;0.30;;;0.30;;
13689;SDS011;6917;52.194;9.894;2023-07-31T04:07:20;2.83;;;0.67;;
13689;SDS011;6917;52.194;9.894;2023-07-31T04:09:45;0.00;;;0.00;;
13689;SDS011;6917;52.194;9.894;2023-07-31T04:12:11;0.00;;;0.00;;
13689;SDS011;6917;52.194;9.894;2023-07-31T04:14:36;0.10;;;0.10;;
13689;SDS011;6917;52.194;9.894;2023-07-31T04:17:02;0.77;;;0.37;;
13689;SDS011;6917;52.194;9.894;2023-07-31T04:19:27;0.00;;;0.00;;
13689;SDS011;6917;52.194;9.894;2023-07-31T04:21:52;0.00;;;0.00;;
13689;SDS011;6917;52.194;9.894;2023-07-31T04:24:18;0.00;;;0.00;;
13689;SDS011;6917;52.194;9.894;2023-07-31T04:26:49;0.00;;;0.00;;
13689;SDS011;6917;52.194;9.894;2023-07-31T04:29:15;0.00;;;0.00;;
13689;SDS011;6917;52.194;9.894;2023-07-31T04:31:40;0.07;;;0.07;;
13689;SDS011;6917;52.194;9.894;2023-07-31T04:34:06;0.00;;;0.00;;
13689;SDS011;6917;52.194;9.894;2023-07-31T04:36:31;0.00;;;0.00;;
13689;SDS011;6917;52.194;9.894;2023-07-31T04:38:58;0.00;;;0.00;;
13689;SDS011;6917;52.194;9.894;2023-07-31T04:41:23;0.00;;;0.00;;
13689;SDS011;6917;52.194;9.894;2023-07-31T04:43:48;0.00;;;0.00;;
13689;SDS011;6917;52.194;9.894;2023-07-31T04:46:13;0.00;;;0.00;;
13689;SDS011;6917;52.194;9.894;2023-07-31T04:48:39;0.00;;;0.00;;
13689;SDS011;6917;52.194;9.894;2023-07-31T04:51:04;0.17;;;0.17;;
13689;SDS011;6917;52.194;9.894;2023-07-31T04:53:29;0.10;;;0.10;;
13689;SDS011;6917;52.194;9.894;2023-07-31T04:55:54;0.00;;;0.00;;
13689;SDS011;6917;52.194;9.894;2023-07-31T04:58:20;0.10;;;0.10;;
13689;SDS011;6917;52.194;9.894;2023-07-31T05:00:45;0.10;;;0.10;;
13689;SDS011;6917;52.194;9.894;2023-07-31T05:03:10;0.57;;;0.57;;
13689;SDS011;6917;52.194;9.894;2023-07-31T05:05:36;0.73;;;0.60;;
13689;SDS011;6917;52.194;9.894;2023-07-31T05:08:01;0.60;;;0.60;;
13689;SDS011;6917;52.194;9.894;2023-07-31T05:10:27;0.47;;;0.17;;
13689;SDS011;6917;52.194;9.894;2023-07-31T05:12:52;1.13;;;0.87;;
13689;SDS011;6917;52.194;9.894;2023-07-31T05:15:17;1.33;;;1.23;;
13689;SDS011;6917;52.194;9.894;2023-07-31T05:17:43;0.20;;;0.20;;
13689;SDS011;6917;52.194;9.894;2023-07-31T05:20:08;1.27;;;1.17;;
13689;SDS011;6917;52.194;9.894;2023-07-31T05:22:34;2.03;;;1.93;;
13689;SDS011;6917;52.194;9.894;2023-07-31T05:24:59;1.37;;;1.27;;
13689;SDS011;6917;52.194;9.894;2023-07-31T05:27:25;2.93;;;1.53;;
13689;SDS011;6917;52.194;9.894;2023-07-31T05:29:50;3.60;;;2.20;;
13689;SDS011;6917;52.194;9.894;2023-07-31T05:32:15;2.53;;;2.33;;
13689;SDS011;6917;52.194;9.894;2023-07-31T05:34:40;5.10;;;2.33;;
13689;SDS011;6917;52.194;9.894;2023-07-31T05:37:06;1.90;;;1.80;;
13689;SDS011;6917;52.194;9.894;2023-07-31T05:39:31;6.23;;;4.10;;
13689;SDS011;6917;52.194;9.894;2023-07-31T05:41:57;1.93;;;1.67;;
13689;SDS011;6917;52.194;9.894;2023-07-31T05:44:22;1.03;;;1.03;;
13689;SDS011;6917;52.194;9.894;2023-07-31T05:46:47;1.90;;;1.80;;
13689;SDS011;6917;52.194;9.894;2023-07-31T05:49:12;12.00;;;3.07;;
13689;SDS011;6917;52.194;9.894;2023-07-31T05:51:38;0.70;;;0.70;;
13689;SDS011;6917;52.194;9.894;2023-07-31T05:54:03;1.13;;;1.13;;
13689;SDS011;6917;52.194;9.894;2023-07-31T05:56:28;7.77;;;1.40;;
13689;SDS011;6917;52.194;9.894;2023-07-31T05:58:53;1.23;;;1.17;;
13689;SDS011;6917;52.194;9.894;2023-07-31T06:01:19;3.60;;;3.30;;
13689;SDS011;6917;52.194;9.894;2023-07-31T06:03:46;1.70;;;1.37;;
13689;SDS011;6917;52.194;9.894;2023-07-31T06:06:11;2.73;;;1.20;;
13689;SDS011;6917;52.194;9.894;2023-07-31T06:08:36;0.87;;;0.83;;
13689;SDS011;6917;52.194;9.894;2023-07-31T06:11:02;2.47;;;2.17;;
13689;SDS011;6917;52.194;9.894;2023-07-31T06:13:27;0.70;;;0.70;;
13689;SDS011;6917;52.194;9.894;2023-07-31T06:15:53;15.17;;;2.07;;
13689;SDS011;6917;52.194;9.894;2023-07-31T06:18:18;0.73;;;0.73;;
13689;SDS011;6917;52.194;9.894;2023-07-31T06:20:43;2.47;;;2.13;;
13689;SDS011;6917;52.194;9.894;2023-07-31T06:23:09;1.37;;;1.23;;
13689;SDS011;6917;52.194;9.894;2023-07-31T06:25:34;2.30;;;2.17;;
13689;SDS011;6917;52.194;9.894;2023-07-31T06:27:59;1.97;;;1.87;;
13689;SDS011;6917;52.194;9.894;2023-07-31T06:30:25;2.70;;;2.50;;
13689;SDS011;6917;52.194;9.894;2023-07-31T06:32:50;2.70;;;2.50;;
13689;SDS011;6917;52.194;9.894;2023-07-31T06:35:15;6.17;;;3.57;;
13689;SDS011;6917;52.194;9.894;2023-07-31T06:37:40;1.00;;;0.93;;
13689;SDS011;6917;52.194;9.894;2023-07-31T06:40:09;0.63;;;0.40;;
13689;SDS011;6917;52.194;9.894;2023-07-31T06:42:35;3.60;;;2.33;;
13689;SDS011;6917;52.194;9.894;2023-07-31T06:45:00;4.90;;;3.93;;
13689;SDS011;6917;52.194;9.894;2023-07-31T06:47:26;4.07;;;3.67;;
13689;SDS011;6917;52.194;9.894;2023-07-31T06:49:52;0.90;;;0.80;;
13689;SDS011;6917;52.194;9.894;2023-07-31T06:52:17;6.57;;;3.00;;
13689;SDS011;6917;52.194;9.894;2023-07-31T06:54:42;7.30;;;3.87;;
13689;SDS011;6917;52.194;9.894;2023-07-31T06:57:08;7.13;;;5.87;;
13689;SDS011;6917;52.194;9.894;2023-07-31T06:59:33;9.33;;;4.07;;
13689;SDS011;6917;52.194;9.894;2023-07-31T07:01:58;0.80;;;0.80;;
13689;SDS011;6917;52.194;9.894;2023-07-31T07:04:24;3.07;;;2.57;;
13689;SDS011;6917;52.194;9.894;2023-07-31T07:06:49;4.53;;;2.93;;
13689;SDS011;6917;52.194;9.894;2023-07-31T07:09:14;3.70;;;2.83;;
13689;SDS011;6917;52.194;9.894;2023-07-31T07:11:39;11.43;;;3.70;;
13689;SDS011;6917;52.194;9.894;2023-07-31T07:14:05;3.00;;;2.80;;
13689;SDS011;6917;52.194;9.894;2023-07-31T07:16:30;2.30;;;1.80;;
13689;SDS011;6917;52.194;9.894;2023-07-31T07:18:55;6.53;;;2.20;;
13689;SDS011;6917;52.194;9.894;2023-07-31T07:21:21;5.03;;;1.17;;
13689;SDS011;6917;52.194;9.894;2023-07-31T07:23:46;10.33;;;2.97;;
13689;SDS011;6917;52.194;9.894;2023-07-31T07:26:11;0.73;;;0.37;;
13689;SDS011;6917;52.194;9.894;2023-07-31T07:28:37;4.60;;;3.73;;
13689;SDS011;6917;52.194;9.894;2023-07-31T07:31:02;1.30;;;1.30;;
13689;SDS011;6917;52.194;9.894;2023-07-31T07:33:28;7.83;;;2.93;;
13689;SDS011;6917;52.194;9.894;2023-07-31T07:35:53;3.50;;;2.53;;
13689;SDS011;6917;52.194;9.894;2023-07-31T07:38:19;0.47;;;0.47;;
13689;SDS011;6917;52.194;9.894;2023-07-31T07:40:44;0.80;;;0.80;;
13689;SDS011;6917;52.194;9.894;2023-07-31T07:43:11;8.97;;;2.43;;
13689;SDS011;6917;52.194;9.894;2023-07-31T07:45:37;3.67;;;3.00;;
13689;SDS011;6917;52.194;9.894;2023-07-31T07:48:02;1.80;;;1.63;;
13689;SDS011;6917;52.194;9.894;2023-07-31T07:50:28;1.90;;;1.80;;
13689;SDS011;6917;52.194;9.894;2023-07-31T07:52:53;2.07;;;1.77;;
13689;SDS011;6917;52.194;9.894;2023-07-31T07:55:18;2.57;;;2.37;;
13689;SDS011;6917;52.194;9.894;2023-07-31T07:57:43;1.60;;;1.47;;
13689;SDS011;6917;52.194;9.894;2023-07-31T08:00:10;1.00;;;1.00;;
13689;SDS011;6917;52.194;9.894;2023-07-31T08:02:35;1.47;;;1.37;;
13689;SDS011;6917;52.194;9.894;2023-07-31T08:05:01;1.37;;;1.27;;
13689;SDS011;6917;52.194;9.894;2023-07-31T08:07:26;0.50;;;0.50;;
13689;SDS011;6917;52.194;9.894;2023-07-31T08:09:52;1.37;;;1.33;;
13689;SDS011;6917;52.194;9.894;2023-07-31T08:12:17;2.87;;;2.47;;
13689;SDS011;6917;52.194;9.894;2023-07-31T08:14:42;0.00;;;0.00;;
13689;SDS011;6917;52.194;9.894;2023-07-31T08:17:07;2.70;;;1.30;;
13689;SDS011;6917;52.194;9.894;2023-07-31T08:19:33;0.73;;;0.73;;
13689;SDS011;6917;52.194;9.894;2023-07-31T08:21:59;0.00;;;0.00;;
13689;SDS011;6917;52.194;9.894;2023-07-31T08:24:24;2.83;;;2.43;;
13689;SDS011;6917;52.194;9.894;2023-07-31T08:26:49;1.60;;;1.50;;
13689;SDS011;6917;52.194;9.894;2023-07-31T08:29:15;3.43;;;2.27;;
13689;SDS011;6917;52.194;9.894;2023-07-31T08:31:40;2.03;;;1.17;;
13689;SDS011;6917;52.194;9.894;2023-07-31T08:34:05;0.63;;;0.63;;
13689;SDS011;6917;52.194;9.894;2023-07-31T08:36:30;2.00;;;1.90;;
13689;SDS011;6917;52.194;9.894;2023-07-31T08:38:56;1.57;;;1.47;;
13689;SDS011;6917;52.194;9.894;2023-07-31T08:41:21;1.30;;;1.20;;
13689;SDS011;6917;52.194;9.894;2023-07-31T08:43:46;0.80;;;0.67;;
13689;SDS011;6917;52.194;9.894;2023-07-31T08:46:14;2.17;;;2.07;;
13689;SDS011;6917;52.194;9.894;2023-07-31T08:48:41;3.50;;;3.23;;
13689;SDS011;6917;52.194;9.894;2023-07-31T08:51:07;2.57;;;2.07;;
13689;SDS011;6917;52.194;9.894;2023-07-31T08:53:33;9.00;;;1.57;;
13689;SDS011;6917;52.194;9.894;2023-07-31T08:55:59;3.80;;;2.10;;
13689;SDS011;6917;52.194;9.894;2023-07-31T08:58:25;1.73;;;1.57;;
13689;SDS011;6917;52.194;9.894;2023-07-31T09:00:56;2.23;;;2.03;;
13689;SDS011;6917;52.194;9.894;2023-07-31T09:03:23;2.83;;;1.63;;
13689;SDS011;6917;52.194;9.894;2023-07-31T09:05:50;1.93;;;1.73;;
13689;SDS011;6917;52.194;9.894;2023-07-31T09:08:20;2.33;;;1.63;;
13689;SDS011;6917;52.194;9.894;2023-07-31T09:10:47;0.10;;;0.10;;
13689;SDS011;6917;52.194;9.894;2023-07-31T09:13:15;11.23;;;0.73;;
13689;SDS011;6917;52.194;9.894;2023-07-31T09:15:41;0.23;;;0.23;;
13689;SDS011;6917;52.194;9.894;2023-07-31T09:18:08;0.47;;;0.47;;
13689;SDS011;6917;52.194;9.894;2023-07-31T09:20:34;0.63;;;0.63;;
13689;SDS011;6917;52.194;9.894;2023-07-31T09:23:07;0.87;;;0.87;;
13689;SDS011;6917;52.194;9.894;2023-07-31T09:25:34;0.00;;;0.00;;
13689;SDS011;6917;52.194;9.894;2023-07-31T09:28:02;0.00;;;0.00;;
13689;SDS011;6917;52.194;9.894;2023-07-31T09:30:29;1.27;;;1.17;;
13689;SDS011;6917;52.194;9.894;2023-07-31T09:33:02;0.30;;;0.30;;
13689;SDS011;6917;52.194;9.894;2023-07-31T09:35:29;1.20;;;0.73;;
13689;SDS011;6917;52.194;9.894;2023-07-31T09:38:00;0.00;;;0.00;;
13689;SDS011;6917;52.194;9.894;2023-07-31T09:40:36;0.00;;;0.00;;
13689;SDS011;6917;52.194;9.894;2023-07-31T09:43:06;0.00;;;0.00;;
13689;SDS011;6917;52.194;9.894;2023-07-31T09:45:37;0.17;;;0.17;;
13689;SDS011;6917;52.194;9.894;2023-07-31T09:48:06;0.00;;;0.00;;
13689;SDS011;6917;52.194;9.894;2023-07-31T09:50:36;0.10;;;0.10;;
13689;SDS011;6917;52.194;9.894;2023-07-31T09:53:04;0.00;;;0.00;;
13689;SDS011;6917;52.194;9.894;2023-07-31T09:55:29;0.83;;;0.60;;
13689;SDS011;6917;52.194;9.894;2023-07-31T09:57:56;0.20;;;0.20;;
13689;SDS011;6917;52.194;9.894;2023-07-31T10:00:22;0.33;;;0.23;;
13689;SDS011;6917;52.194;9.894;2023-07-31T10:02:51;1.90;;;1.60;;
13689;SDS011;6917;52.194;9.894;2023-07-31T10:05:19;0.30;;;0.30;;
13689;SDS011;6917;52.194;9.894;2023-07-31T10:07:54;0.20;;;0.20;;
13689;SDS011;6917;52.194;9.894;2023-07-31T10:10:21;0.83;;;0.83;;
13689;SDS011;6917;52.194;9.894;2023-07-31T10:12:50;4.43;;;0.90;;
13689;SDS011;6917;52.194;9.894;2023-07-31T10:15:17;0.50;;;0.50;;
13689;SDS011;6917;52.194;9.894;2023-07-31T10:17:46;0.00;;;0.00;;
13689;SDS011;6917;52.194;9.894;2023-07-31T10:20:12;0.23;;;0.23;;
13689;SDS011;6917;52.194;9.894;2023-07-31T10:22:42;0.20;;;0.20;;
13689;SDS011;6917;52.194;9.894;2023-07-31T10:25:08;1.70;;;1.03;;
13689;SDS011;6917;52.194;9.894;2023-07-31T10:27:40;0.10;;;0.10;;
13689;SDS011;6917;52.194;9.894;2023-07-31T10:30:11;1.70;;;0.77;;
13689;SDS011;6917;52.194;9.894;2023-07-31T10:32:40;0.10;;;0.10;;
13689;SDS011;6917;52.194;9.894;2023-07-31T10:35:08;2.37;;;1.30;;
13689;SDS011;6917;52.194;9.894;2023-07-31T10:37:40;0.20;;;0.20;;
13689;SDS011;6917;52.194;9.894;2023-07-31T10:40:16;0.93;;;0.93;;
13689;SDS011;6917;52.194;9.894;2023-07-31T10:42:52;7.50;;;1.47;;
13689;SDS011;6917;52.194;9.894;2023-07-31T10:45:31;2.60;;;0.60;;
13689;SDS011;6917;52.194;9.894;2023-07-31T10:48:00;0.83;;;0.67;;
13689;SDS011;6917;52.194;9.894;2023-07-31T10:50:31;1.07;;;1.00;;
13689;SDS011;6917;52.194;9.894;2023-07-31T10:53:03;4.97;;;1.40;;
13689;SDS011;6917;52.194;9.894;2023-07-31T10:57:57;1.17;;;1.07;;
13689;SDS011;6917;52.194;9.894;2023-07-31T11:00:37;0.90;;;0.33;;
13689;SDS011;6917;52.194;9.894;2023-07-31T11:03:04;1.63;;;1.17;;
13689;SDS011;6917;52.194;9.894;2023-07-31T11:05:43;1.27;;;1.27;;
13689;SDS011;6917;52.194;9.894;2023-07-31T11:08:20;1.83;;;0.73;;
13689;SDS011;6917;52.194;9.894;2023-07-31T11:10:48;1.70;;;1.57;;
13689;SDS011;6917;52.194;9.894;2023-07-31T11:13:15;2.27;;;1.00;;
13689;SDS011;6917;52.194;9.894;2023-07-31T11:15:43;0.67;;;0.37;;
13689;SDS011;6917;52.194;9.894;2023-07-31T11:18:09;1.20;;;1.13;;
13689;SDS011;6917;52.194;9.894;2023-07-31T11:20:38;1.33;;;1.07;;
13689;SDS011;6917;52.194;9.894;2023-07-31T11:23:05;1.90;;;1.17;;
13689;SDS011;6917;52.194;9.894;2023-07-31T11:25:33;0.40;;;0.40;;
13689;SDS011;6917;52.194;9.894;2023-07-31T11:28:09;1.27;;;1.10;;
13689;SDS011;6917;52.194;9.894;2023-07-31T11:30:36;0.67;;;0.67;;
13689;SDS011;6917;52.194;9.894;2023-07-31T11:33:03;1.13;;;1.03;;
13689;SDS011;6917;52.194;9.894;2023-07-31T11:35:33;0.33;;;0.33;;
13689;SDS011;6917;52.194;9.894;2023-07-31T11:38:00;1.13;;;1.03;;
13689;SDS011;6917;52.194;9.894;2023-07-31T11:40:29;2.43;;;0.40;;
13689;SDS011;6917;52.194;9.894;2023-07-31T11:42:56;1.03;;;0.97;;
13689;SDS011;6917;52.194;9.894;2023-07-31T11:45:27;5.20;;;1.50;;
13689;SDS011;6917;52.194;9.894;2023-07-31T11:47:53;1.10;;;0.93;;
13689;SDS011;6917;52.194;9.894;2023-07-31T11:50:20;0.47;;;0.30;;
13689;SDS011;6917;52.194;9.894;2023-07-31T11:52:45;0.27;;;0.20;;
13689;SDS011;6917;52.194;9.894;2023-07-31T11:55:13;0.43;;;0.43;;
13689;SDS011;6917;52.194;9.894;2023-07-31T11:57:41;0.63;;;0.63;;
13689;SDS011;6917;52.194;9.894;2023-07-31T12:00:10;0.60;;;0.50;;
13689;SDS011;6917;52.194;9.894;2023-07-31T12:02:38;0.50;;;0.50;;
13689;SDS011;6917;52.194;9.894;2023-07-31T12:05:05;3.20;;;0.63;;
13689;SDS011;6917;52.194;9.894;2023-07-31T12:07:44;1.40;;;0.87;;
13689;SDS011;6917;52.194;9.894;2023-07-31T12:10:27;0.43;;;0.43;;
13689;SDS011;6917;52.194;9.894;2023-07-31T12:13:01;1.10;;;1.03;;
13689;SDS011;6917;52.194;9.894;2023-07-31T12:15:31;1.13;;;0.93;;
13689;SDS011;6917;52.194;9.894;2023-07-31T12:18:05;0.53;;;0.40;;
13689;SDS011;6917;52.194;9.894;2023-07-31T12:20:35;0.20;;;0.20;;
13689;SDS011;6917;52.194;9.894;2023-07-31T12:23:05;0.80;;;0.77;;
13689;SDS011;6917;52.194;9.894;2023-07-31T12:25:31;5.73;;;1.13;;
13689;SDS011;6917;52.194;9.894;2023-07-31T12:27:58;0.20;;;0.20;;
13689;SDS011;6917;52.194;9.894;2023-07-31T12:30:32;0.80;;;0.80;;
13689;SDS011;6917;52.194;9.894;2023-07-31T12:33:02;1.70;;;1.13;;
13689;SDS011;6917;52.194;9.894;2023-07-31T12:35:46;0.10;;;0.10;;
13689;SDS011;6917;52.194;9.894;2023-07-31T12:38:12;1.53;;;0.60;;
13689;SDS011;6917;52.194;9.894;2023-07-31T12:40:39;1.00;;;1.00;;
13689;SDS011;6917;52.194;9.894;2023-07-31T12:43:05;0.80;;;0.77;;
13689;SDS011;6917;52.194;9.894;2023-07-31T12:45:31;0.50;;;0.50;;
13689;SDS011;6917;52.194;9.894;2023-07-31T12:47:57;0.60;;;0.60;;
13689;SDS011;6917;52.194;9.894;2023-07-31T12:50:23;0.40;;;0.40;;
13689;SDS011;6917;52.194;9.894;2023-07-31T12:52:49;1.10;;;0.87;;
13689;SDS011;6917;52.194;9.894;2023-07-31T12:55:14;0.80;;;0.60;;
13689;SDS011;6917;52.194;9.894;2023-07-31T12:57:40;0.57;;;0.47;;
13689;SDS011;6917;52.194;9.894;2023-07-31T13:00:07;0.33;;;0.33;;
13689;SDS011;6917;52.194;9.894;2023-07-31T13:02:32;0.40;;;0.40;;
13689;SDS011;6917;52.194;9.894;2023-07-31T13:04:58;0.33;;;0.33;;
13689;SDS011;6917;52.194;9.894;2023-07-31T13:07:23;0.00;;;0.00;;
13689;SDS011;6917;52.194;9.894;2023-07-31T13:09:48;0.40;;;0.10;;
13689;SDS011;6917;52.194;9.894;2023-07-31T13:12:13;0.50;;;0.20;;
13689;SDS011;6917;52.194;9.894;2023-07-31T13:14:39;0.10;;;0.10;;
13689;SDS011;6917;52.194;9.894;2023-07-31T13:17:04;0.00;;;0.00;;
13689;SDS011;6917;52.194;9.894;2023-07-31T13:19:29;0.00;;;0.00;;
13689;SDS011;6917;52.194;9.894;2023-07-31T13:21:55;0.43;;;0.37;;
13689;SDS011;6917;52.194;9.894;2023-07-31T13:24:20;0.77;;;0.30;;
13689;SDS011;6917;52.194;9.894;2023-07-31T13:26:45;0.00;;;0.00;;
13689;SDS011;6917;52.194;9.894;2023-07-31T13:29:11;0.03;;;0.03;;
13689;SDS011;6917;52.194;9.894;2023-07-31T13:31:36;0.20;;;0.20;;
13689;SDS011;6917;52.194;9.894;2023-07-31T13:34:01;0.10;;;0.10;;
13689;SDS011;6917;52.194;9.894;2023-07-31T13:36:26;0.00;;;0.00;;
13689;SDS011;6917;52.194;9.894;2023-07-31T13:38:52;0.20;;;0.10;;
13689;SDS011;6917;52.194;9.894;2023-07-31T13:41:17;0.30;;;0.30;;
13689;SDS011;6917;52.194;9.894;2023-07-31T13:43:42;0.30;;;0.30;;
13689;SDS011;6917;52.194;9.894;2023-07-31T13:46:08;0.10;;;0.10;;
13689;SDS011;6917;52.194;9.894;2023-07-31T13:48:35;0.27;;;0.20;;
13689;SDS011;6917;52.194;9.894;2023-07-31T13:51:01;0.10;;;0.10;;
13689;SDS011;6917;52.194;9.894;2023-07-31T13:53:26;0.20;;;0.20;;
13689;SDS011;6917;52.194;9.894;2023-07-31T13:55:52;0.10;;;0.07;;
13689;SDS011;6917;52.194;9.894;2023-07-31T13:58:17;0.30;;;0.23;;
13689;SDS011;6917;52.194;9.894;2023-07-31T14:00:42;0.10;;;0.10;;
13689;SDS011;6917;52.194;9.894;2023-07-31T14:03:08;0.10;;;0.10;;
13689;SDS011;6917;52.194;9.894;2023-07-31T14:05:33;0.17;;;0.17;;
13689;SDS011;6917;52.194;9.894;2023-07-31T14:07:58;0.10;;;0.10;;
13689;SDS011;6917;52.194;9.894;2023-07-31T14:10:23;0.10;;;0.10;;
13689;SDS011;6917;52.194;9.894;2023-07-31T14:12:49;0.80;;;0.80;;
13689;SDS011;6917;52.194;9.894;2023-07-31T14:15:14;0.10;;;0.10;;
13689;SDS011;6917;52.194;9.894;2023-07-31T14:17:42;1.93;;;0.47;;
13689;SDS011;6917;52.194;9.894;2023-07-31T14:20:07;0.20;;;0.20;;
13689;SDS011;6917;52.194;9.894;2023-07-31T14:22:34;0.00;;;0.00;;
13689;SDS011;6917;52.194;9.894;2023-07-31T14:24:59;0.20;;;0.20;;
13689;SDS011;6917;52.194;9.894;2023-07-31T14:27:25;0.20;;;0.20;;
13689;SDS011;6917;52.194;9.894;2023-07-31T14:29:59;1.07;;;0.30;;
13689;SDS011;6917;52.194;9.894;2023-07-31T14:32:25;0.20;;;0.20;;
13689;SDS011;6917;52.194;9.894;2023-07-31T14:34:50;0.47;;;0.27;;
13689;SDS011;6917;52.194;9.894;2023-07-31T14:37:16;0.07;;;0.07;;
13689;SDS011;6917;52.194;9.894;2023-07-31T14:39:41;0.10;;;0.10;;
13689;SDS011;6917;52.194;9.894;2023-07-31T14:42:06;0.20;;;0.20;;
13689;SDS011;6917;52.194;9.894;2023-07-31T14:44:32;0.30;;;0.30;;
13689;SDS011;6917;52.194;9.894;2023-07-31T14:46:57;0.20;;;0.20;;
13689;SDS011;6917;52.194;9.894;2023-07-31T14:49:22;0.80;;;0.50;;
13689;SDS011;6917;52.194;9.894;2023-07-31T14:51:48;1.10;;;0.20;;
13689;SDS011;6917;52.194;9.894;2023-07-31T14:54:13;0.20;;;0.20;;
13689;SDS011;6917;52.194;9.894;2023-07-31T14:56:39;0.50;;;0.50;;
13689;SDS011;6917;52.194;9.894;2023-07-31T14:59:04;0.30;;;0.30;;
13689;SDS011;6917;52.194;9.894;2023-07-31T15:01:29;0.60;;;0.60;;
13689;SDS011;6917;52.194;9.894;2023-07-31T15:03:55;0.37;;;0.30;;